Annandale On Hudson, NY

4:25 AM EST on December 25, 2014 (GMT -0500)
MesoWest NERRS METEOROLOGICAL SITE HUDSON NY US | Change Station
CLOSE
Current Station
Personal Weather Station
Location: Annandale, NY
Elevation: 168 ft
Nearby Weather Stations
Active Advisory: Special Statement

Elev 168 ft 42.02 °N, 73.92 °W | Updated 55 minutes ago

Overcast
Overcast
50 °F
Feels Like 50 °F
N
1
Wind Variable Wind from SSW
Gusts 5.0 mph

Today
High -- | Low -- °F
--% Chance of Precip.
Yesterday
High -- | Low -- °F
Precip. -- in
7:22 AM 4:29 PM
Waxing Crescent, 15% visible
Pressure 29.47 in
Visibility 10.0 miles
Clouds Few 5500 ft
Few 8500 ft
Mostly Cloudy 11000 ft
Dew Point 50 °F
Humidity 100%
Rainfall -999.00 in
Snow Depth Not available.
UV 0 out of 12
Pollen .10 out of 12
Air Quality Not available.
Flu Activity Not available.
METAR KPOU 250853Z AUTO 24007KT 10SM -RA FEW055 FEW085 BKN110 16/13 A2948 RMK AO2 RAB52 SLP979 P0000 60000 T01610133 50004 TSNO

More Conditions Fewer Conditions

Pressure 29.47 in
Visibility 10.0 miles
Clouds Few 5500 ft
Few 8500 ft
Mostly Cloudy 11000 ft
Dew Point 50 °F
Humidity 100%
Rainfall -999.00 in
Snow Depth Not available.
UV 0 out of 12
Pollen .10 out of 12
Air Quality Not available.
Flu Activity Not available.
METAR KPOU 250853Z AUTO 24007KT 10SM -RA FEW055 FEW085 BKN110 16/13 A2948 RMK AO2 RAB52 SLP979 P0000 60000 T01610133 50004 TSNO

More Conditions Fewer Conditions

10-Day Weather Forecast

Almanac

Astronomy

Dec. 25, 2014 Rise Set
Actual Time
Civil Twilight
Nautical Twilight
Astronomical Twilight
Moon
Length of Visible Light
Length of Day
Tomorrow will be .
, % of the Moon is Illuminated

Today's Extremes

State Highs State Lows

Community

WunderPhotos

Upload Photos

1,780,252 photos uploaded!

WunderBlogs® & News

Nearby

Air Quality

  Air Quality AQ Index Pollutant
Not available.

Snow Depth

Station Depth Elevation

Earthquake Activity

City Distance Mag. Time & Date
Minimum magnitude displayed is 2.5.

Coastal Water Temperatures

Place Temperature

Nearby Weather Stations